Time,TemperatureF,DewpointF,PressureIn,WindDirection,WindDirectionDegrees,WindSpeedMPH,WindSpeedGustMPH,Humidity,HourlyPrecipIn,Conditions,Clouds,dailyrainin,SoftwareType,DateUTC
2013-03-19 00:03:00,28.0,23.0,29.78,West,269,1.0,7.0,81,0.00,,,0.04,,2013-03-19 04:03:00,
2013-03-19 00:13:00,28.0,23.0,29.78,West,269,1.0,7.0,81,0.00,,,0.04,,2013-03-19 04:13:00,
2013-03-19 00:23:00,28.0,23.0,29.78,West,271,2.0,7.0,82,0.00,,,0.04,,2013-03-19 04:23:00,
2013-03-19 00:33:00,28.0,23.0,29.78,West,271,2.0,7.0,82,0.00,,,0.04,,2013-03-19 04:33:00,
2013-03-19 00:43:00,28.0,23.0,29.78,West,271,2.0,7.0,82,0.00,,,0.04,,2013-03-19 04:43:00,
2013-03-19 00:52:00,27.0,21.0,29.79,NE,45,2.0,9.0,79,0.00,,,0.04,,2013-03-19 04:52:00,
2013-03-19 01:02:00,27.0,22.0,29.79,WNW,296,0.0,8.0,80,0.00,,,0.04,,2013-03-19 05:02:00,
2013-03-19 01:12:00,27.0,22.0,29.79,WNW,296,0.0,8.0,80,0.00,,,0.04,,2013-03-19 05:12:00,
2013-03-19 01:22:00,27.0,22.0,29.79,WNW,296,0.0,8.0,80,0.00,,,0.04,,2013-03-19 05:22:00,
2013-03-19 01:32:00,26.0,20.0,29.80,WSW,249,2.0,8.0,78,0.00,,,0.04,,2013-03-19 05:32:00,
2013-03-19 01:43:00,26.0,20.0,29.80,WSW,249,2.0,8.0,78,0.00,,,0.04,,2013-03-19 05:43:00,
2013-03-19 01:52:00,25.0,19.0,29.81,NNW,331,1.0,8.0,78,0.00,,,0.04,,2013-03-19 05:52:00,
2013-03-19 02:02:00,25.0,19.0,29.81,WNW,294,1.0,11.0,79,0.00,,,0.04,,2013-03-19 06:02:00,
2013-03-19 02:12:00,25.0,19.0,29.81,WNW,294,1.0,11.0,79,0.00,,,0.04,,2013-03-19 06:12:00,
2013-03-19 02:22:00,25.0,20.0,29.81,NNW,327,0.0,7.0,82,0.00,,,0.04,,2013-03-19 06:22:00,
2013-03-19 02:32:00,24.0,19.0,29.81,NW,305,3.0,8.0,81,0.00,,,0.04,,2013-03-19 06:32:00,
2013-03-19 02:42:00,24.0,19.0,29.81,NW,305,3.0,8.0,81,0.00,,,0.04,,2013-03-19 06:42:00,
2013-03-19 02:52:00,24.0,18.0,29.81,ENE,78,1.0,7.0,78,0.00,,,0.04,,2013-03-19 06:52:00,
2013-03-19 03:02:00,24.0,18.0,29.81,West,275,2.0,6.0,77,0.00,,,0.04,,2013-03-19 07:02:00,
2013-03-19 03:12:00,24.0,18.0,29.81,West,275,2.0,6.0,77,0.00,,,0.04,,2013-03-19 07:12:00,
2013-03-19 03:21:00,24.0,18.0,29.82,WNW,300,1.0,5.0,78,0.00,,,0.04,,2013-03-19 07:21:00,
2013-03-19 03:32:00,24.0,19.0,29.82,WSW,247,0.0,7.0,80,0.00,,,0.04,,2013-03-19 07:32:00,
2013-03-19 03:42:00,24.0,19.0,29.82,WSW,247,0.0,7.0,80,0.00,,,0.04,,2013-03-19 07:42:00,
2013-03-19 03:52:00,23.0,18.0,29.82,SW,233,0.0,6.0,81,0.00,,,0.04,,2013-03-19 07:52:00,
2013-03-19 04:02:00,23.0,18.0,29.82,SSW,202,1.0,5.0,80,0.00,,,0.04,,2013-03-19 08:02:00,
2013-03-19 04:12:00,23.0,18.0,29.82,SSW,202,1.0,5.0,80,0.00,,,0.04,,2013-03-19 08:12:00,
2013-03-19 04:22:00,23.0,17.0,29.82,West,261,1.0,8.0,78,0.00,,,0.04,,2013-03-19 08:22:00,
2013-03-19 04:32:00,23.0,18.0,29.82,NNW,336,0.0,5.0,80,0.00,,,0.04,,2013-03-19 08:32:00,
2013-03-19 04:42:00,23.0,18.0,29.82,NNW,336,0.0,5.0,80,0.00,,,0.04,,2013-03-19 08:42:00,
2013-03-19 04:52:00,23.0,17.0,29.82,WSW,252,1.0,5.0,78,0.00,,,0.04,,2013-03-19 08:52:00,
2013-03-19 05:02:00,23.0,17.0,29.82,WSW,252,1.0,5.0,78,0.00,,,0.04,,2013-03-19 09:02:00,
2013-03-19 05:12:00,23.0,17.0,29.82,WSW,252,1.0,5.0,78,0.00,,,0.04,,2013-03-19 09:12:00,
2013-03-19 05:22:00,22.0,17.0,29.81,WSW,253,1.0,5.0,80,0.00,,,0.04,,2013-03-19 09:22:00,
2013-03-19 05:32:00,22.0,17.0,29.83,SW,236,2.0,6.0,82,0.00,,,0.04,,2013-03-19 09:32:00,
2013-03-19 05:43:00,22.0,17.0,29.83,SW,236,2.0,6.0,82,0.00,,,0.04,,2013-03-19 09:43:00,
2013-03-19 05:53:00,22.0,18.0,29.83,West,259,0.0,5.0,83,0.00,,,0.04,,2013-03-19 09:53:00,
2013-03-19 06:03:00,22.0,17.0,29.83,South,172,2.0,8.0,81,0.00,,,0.04,,2013-03-19 10:03:00,
2013-03-19 06:12:00,22.0,17.0,29.83,South,172,2.0,8.0,81,0.00,,,0.04,,2013-03-19 10:12:00,
2013-03-19 06:23:00,22.0,17.0,29.84,South,190,2.0,4.0,81,0.00,,,0.04,,2013-03-19 10:23:00,
2013-03-19 06:32:00,22.0,17.0,29.84,WSW,252,2.0,7.0,80,0.00,,,0.04,,2013-03-19 10:32:00,
2013-03-19 06:42:00,22.0,17.0,29.84,WSW,252,2.0,7.0,80,0.00,,,0.04,,2013-03-19 10:42:00,
2013-03-19 06:53:00,22.0,17.0,29.85,SW,236,2.0,5.0,81,0.00,,,0.04,,2013-03-19 10:53:00,
2013-03-19 07:02:00,21.0,16.0,29.85,WNW,287,0.0,5.0,81,0.00,,,0.04,,2013-03-19 11:02:00,
2013-03-19 07:12:00,21.0,16.0,29.85,WNW,287,0.0,5.0,81,0.00,,,0.04,,2013-03-19 11:12:00,
2013-03-19 07:22:00,21.0,16.0,29.85,SW,232,2.0,6.0,81,0.00,,,0.04,,2013-03-19 11:22:00,
2013-03-19 07:32:00,21.0,16.0,29.85,WSW,248,1.0,7.0,80,0.00,,,0.04,,2013-03-19 11:32:00,
2013-03-19 07:42:00,21.0,16.0,29.85,WSW,248,1.0,7.0,80,0.00,,,0.04,,2013-03-19 11:42:00,
2013-03-19 07:52:00,21.0,16.0,29.85,ESE,123,1.0,7.0,81,0.00,,,0.04,,2013-03-19 11:52:00,
2013-03-19 08:02:00,21.0,17.0,29.86,WSW,253,2.0,5.0,83,0.00,,,0.04,,2013-03-19 12:02:00,
2013-03-19 08:12:00,21.0,17.0,29.86,WSW,253,2.0,5.0,83,0.00,,,0.04,,2013-03-19 12:12:00,
2013-03-19 08:22:00,21.0,16.0,29.86,SW,235,1.0,7.0,82,0.00,,,0.04,,2013-03-19 12:22:00,
2013-03-19 08:33:00,21.0,16.0,29.86,West,271,0.0,5.0,82,0.00,,,0.04,,2013-03-19 12:33:00,
2013-03-19 08:42:00,21.0,16.0,29.86,West,271,0.0,5.0,82,0.00,,,0.04,,2013-03-19 12:42:00,
2013-03-19 08:52:00,21.0,16.0,29.86,SSE,165,2.0,5.0,81,0.00,,,0.04,,2013-03-19 12:52:00,
2013-03-19 09:02:00,21.0,16.0,29.87,NW,306,0.0,4.0,80,0.00,,,0.04,,2013-03-19 13:02:00,
2013-03-19 09:12:00,21.0,16.0,29.87,NW,306,0.0,4.0,80,0.00,,,0.04,,2013-03-19 13:12:00,
2013-03-19 09:22:00,21.0,16.0,29.86,NW,310,2.0,6.0,80,0.00,,,0.04,,2013-03-19 13:22:00,
2013-03-19 09:32:00,22.0,17.0,29.87,South,178,1.0,6.0,82,0.00,,,0.04,,2013-03-19 13:32:00,
2013-03-19 09:42:00,22.0,17.0,29.87,South,178,1.0,6.0,82,0.00,,,0.04,,2013-03-19 13:42:00,
2013-03-19 09:53:00,22.0,17.0,29.87,ESE,109,1.0,7.0,82,0.00,,,0.04,,2013-03-19 13:53:00,
2013-03-19 10:02:00,22.0,17.0,29.87,West,267,2.0,9.0,81,0.00,,,0.04,,2013-03-19 14:02:00,
2013-03-19 10:12:00,22.0,17.0,29.87,West,267,2.0,9.0,81,0.00,,,0.04,,2013-03-19 14:12:00,
2013-03-19 10:22:00,22.0,17.0,29.88,West,259,2.0,7.0,82,0.00,,,0.04,,2013-03-19 14:22:00,
2013-03-19 10:32:00,23.0,17.0,29.88,WSW,238,1.0,9.0,79,0.00,,,0.04,,2013-03-19 14:32:00,
2013-03-19 10:42:00,23.0,17.0,29.88,WSW,238,1.0,9.0,79,0.00,,,0.04,,2013-03-19 14:42:00,
2013-03-19 10:52:00,23.0,17.0,29.89,WSW,257,1.0,8.0,79,0.00,,,0.04,,2013-03-19 14:52:00,
2013-03-19 11:02:00,23.0,17.0,29.89,WNW,283,3.0,15.0,78,0.00,,,0.04,,2013-03-19 15:02:00,
2013-03-19 11:12:00,23.0,17.0,29.89,WNW,283,3.0,15.0,78,0.00,,,0.04,,2013-03-19 15:12:00,
2013-03-19 11:22:00,24.0,18.0,29.90,NW,309,1.0,10.0,76,0.00,,,0.04,,2013-03-19 15:22:00,
2013-03-19 11:33:00,24.0,17.0,29.90,WNW,298,3.0,9.0,74,0.00,,,0.04,,2013-03-19 15:33:00,
2013-03-19 11:43:00,24.0,17.0,29.90,WNW,298,3.0,9.0,74,0.00,,,0.04,,2013-03-19 15:43:00,
2013-03-19 11:53:00,26.0,19.0,29.90,WSW,240,3.0,11.0,73,0.00,,,0.04,,2013-03-19 15:53:00,
2013-03-19 12:03:00,27.0,19.0,29.91,WNW,297,4.0,9.0,70,0.00,,,0.04,,2013-03-19 16:03:00,
2013-03-19 12:13:00,27.0,19.0,29.91,WNW,297,4.0,9.0,70,0.00,,,0.04,,2013-03-19 16:13:00,
2013-03-19 12:24:00,26.0,18.0,29.91,NNW,333,3.0,10.0,70,0.00,,,0.04,,2013-03-19 16:24:00,
2013-03-19 12:34:00,27.0,19.0,29.92,WSW,250,4.0,16.0,71,0.00,,,0.04,,2013-03-19 16:34:00,
2013-03-19 12:44:00,27.0,19.0,29.92,WSW,250,4.0,16.0,71,0.00,,,0.04,,2013-03-19 16:44:00,
2013-03-19 12:54:00,29.0,23.0,29.93,NNW,334,2.0,9.0,77,0.00,,,0.04,,2013-03-19 16:54:00,
2013-03-19 13:03:00,29.0,20.0,29.93,NW,322,2.0,12.0,70,0.00,,,0.04,,2013-03-19 17:03:00,
2013-03-19 13:13:00,29.0,20.0,29.93,NW,322,2.0,12.0,70,0.00,,,0.04,,2013-03-19 17:13:00,
2013-03-19 13:23:00,30.0,21.0,29.93,WNW,283,3.0,8.0,70,0.00,,,0.03,,2013-03-19 17:23:00,
2013-03-19 13:34:00,30.0,21.0,29.94,ENE,69,1.0,10.0,68,0.00,,,0.03,,2013-03-19 17:34:00,
2013-03-19 13:44:00,30.0,21.0,29.94,ENE,69,1.0,10.0,68,0.00,,,0.03,,2013-03-19 17:44:00,
2013-03-19 13:53:00,30.0,20.0,29.94,WNW,300,5.0,11.0,65,0.00,,,0.03,,2013-03-19 17:53:00,
2013-03-19 14:03:00,31.0,22.0,29.95,West,270,1.0,9.0,68,0.00,,,0.03,,2013-03-19 18:03:00,
2013-03-19 14:13:00,31.0,22.0,29.95,West,270,1.0,9.0,68,0.00,,,0.03,,2013-03-19 18:13:00,
2013-03-19 14:23:00,32.0,20.0,29.96,WSW,245,4.0,12.0,62,0.00,,,0.02,,2013-03-19 18:23:00,
2013-03-19 14:33:00,32.0,20.0,29.96,NW,319,4.0,11.0,62,0.00,,,0.02,,2013-03-19 18:33:00,
2013-03-19 14:43:00,32.0,20.0,29.96,NW,319,4.0,11.0,62,0.00,,,0.02,,2013-03-19 18:43:00,
2013-03-19 14:53:00,32.0,20.0,29.96,NW,319,4.0,11.0,62,0.00,,,0.02,,2013-03-19 18:53:00,
2013-03-19 15:02:00,34.0,21.0,29.96,West,260,4.0,11.0,59,0.00,,,0.02,,2013-03-19 19:02:00,
2013-03-19 15:12:00,34.0,21.0,29.96,West,260,4.0,11.0,59,0.00,,,0.02,,2013-03-19 19:12:00,
2013-03-19 15:22:00,34.0,21.0,29.97,NW,312,3.0,9.0,59,0.00,,,0.02,,2013-03-19 19:22:00,
2013-03-19 15:33:00,34.0,20.0,29.97,NNW,344,4.0,9.0,57,0.01,,,0.03,,2013-03-19 19:33:00,
2013-03-19 15:42:00,34.0,20.0,29.97,NNW,344,4.0,9.0,57,0.01,,,0.03,,2013-03-19 19:42:00,
2013-03-19 15:53:00,34.0,21.0,29.97,NNW,346,4.0,14.0,59,0.01,,,0.03,,2013-03-19 19:53:00,
2013-03-19 16:02:00,35.0,20.0,29.97,NW,311,3.0,8.0,55,0.01,,,0.03,,2013-03-19 20:02:00,
2013-03-19 16:12:00,35.0,20.0,29.97,NW,311,3.0,8.0,55,0.01,,,0.03,,2013-03-19 20:12:00,
2013-03-19 16:22:00,35.0,22.0,29.97,NW,305,2.0,10.0,58,0.01,,,0.03,,2013-03-19 20:22:00,
2013-03-19 16:32:00,35.0,22.0,29.98,WSW,244,2.0,11.0,58,0.00,,,0.03,,2013-03-19 20:32:00,
2013-03-19 16:42:00,35.0,22.0,29.98,WSW,244,2.0,11.0,58,0.00,,,0.03,,2013-03-19 20:42:00,
2013-03-19 16:53:00,36.0,22.0,29.98,NNW,340,3.0,11.0,56,0.00,,,0.03,,2013-03-19 20:53:00,
2013-03-19 17:02:00,35.0,20.0,29.99,NW,325,4.0,12.0,55,0.00,,,0.03,,2013-03-19 21:02:00,
2013-03-19 17:12:00,35.0,20.0,29.99,NW,325,4.0,12.0,55,0.00,,,0.03,,2013-03-19 21:12:00,
2013-03-19 17:22:00,36.0,22.0,29.99,SSW,209,1.0,10.0,56,0.00,,,0.02,,2013-03-19 21:22:00,
2013-03-19 17:33:00,36.0,22.0,29.99,SSW,209,1.0,10.0,56,0.00,,,0.02,,2013-03-19 21:33:00,
2013-03-19 17:43:00,36.0,22.0,29.99,SSW,209,1.0,10.0,56,0.00,,,0.02,,2013-03-19 21:43:00,
2013-03-19 17:53:00,35.0,20.0,30.00,NW,323,3.0,10.0,54,0.00,,,0.02,,2013-03-19 21:53:00,
2013-03-19 18:03:00,36.0,21.0,30.01,WNW,302,2.0,13.0,54,0.00,,,0.02,,2013-03-19 22:03:00,
2013-03-19 18:12:00,36.0,21.0,30.01,WNW,302,2.0,13.0,54,0.00,,,0.02,,2013-03-19 22:12:00,
2013-03-19 18:23:00,35.0,17.0,30.01,West,273,3.0,8.0,48,0.00,,,0.01,,2013-03-19 22:23:00,
2013-03-19 18:33:00,35.0,20.0,30.01,NW,306,1.0,12.0,55,0.00,,,0.01,,2013-03-19 22:33:00,
2013-03-19 18:43:00,35.0,20.0,30.01,NW,306,1.0,12.0,55,0.00,,,0.01,,2013-03-19 22:43:00,
2013-03-19 18:53:00,34.0,20.0,30.01,WNW,295,1.0,11.0,55,0.00,,,0.01,,2013-03-19 22:53:00,
2013-03-19 19:02:00,33.0,18.0,30.02,NW,308,2.0,10.0,53,0.00,,,0.01,,2013-03-19 23:02:00,
2013-03-19 19:12:00,33.0,18.0,30.02,NW,308,2.0,10.0,53,0.00,,,0.01,,2013-03-19 23:12:00,
2013-03-19 19:22:00,33.0,18.0,30.02,NW,308,2.0,10.0,53,0.00,,,0.01,,2013-03-19 23:22:00,
2013-03-19 19:32:00,33.0,19.0,30.02,West,275,1.0,11.0,56,0.00,,,0.01,,2013-03-19 23:32:00,
2013-03-19 19:42:00,33.0,19.0,30.02,West,275,1.0,11.0,56,0.00,,,0.01,,2013-03-19 23:42:00,
2013-03-19 19:53:00,32.0,18.0,30.02,NW,325,1.0,7.0,56,0.00,,,0.01,,2013-03-19 23:53:00,
2013-03-19 20:03:00,32.0,19.0,30.03,NW,307,2.0,11.0,58,0.00,,,0.01,,2013-03-20 00:03:00,
2013-03-19 20:13:00,32.0,19.0,30.03,NW,307,2.0,11.0,58,0.00,,,0.01,,2013-03-20 00:13:00,
2013-03-19 20:22:00,31.0,18.0,30.03,NNE,23,1.0,8.0,58,0.00,,,0.01,,2013-03-20 00:22:00,
2013-03-19 20:33:00,31.0,18.0,30.03,NW,317,1.0,7.0,58,0.00,,,0.01,,2013-03-20 00:33:00,
2013-03-19 20:42:00,31.0,18.0,30.03,NW,317,1.0,7.0,58,0.00,,,0.01,,2013-03-20 00:42:00,
2013-03-19 20:52:00,31.0,19.0,30.03,WSW,240,0.0,6.0,61,0.00,,,0.01,,2013-03-20 00:52:00,
2013-03-19 21:03:00,31.0,19.0,30.04,WNW,292,1.0,5.0,61,0.00,,,0.01,,2013-03-20 01:03:00,
2013-03-19 21:12:00,31.0,19.0,30.04,WNW,292,1.0,5.0,61,0.00,,,0.01,,2013-03-20 01:12:00,
2013-03-19 21:22:00,31.0,19.0,30.04,West,281,0.0,8.0,61,0.00,,,0.01,,2013-03-20 01:22:00,
2013-03-19 21:32:00,31.0,20.0,30.05,NNW,336,0.0,4.0,62,0.00,,,0.01,,2013-03-20 01:32:00,
2013-03-19 21:42:00,31.0,20.0,30.05,NNW,336,0.0,4.0,62,0.00,,,0.01,,2013-03-20 01:42:00,
2013-03-19 21:53:00,31.0,20.0,30.05,WNW,290,1.0,8.0,64,0.00,,,0.01,,2013-03-20 01:53:00,
2013-03-19 22:02:00,31.0,20.0,30.05,WNW,284,1.0,9.0,63,0.00,,,0.01,,2013-03-20 02:02:00,
2013-03-19 22:12:00,31.0,20.0,30.05,WNW,284,1.0,9.0,63,0.00,,,0.01,,2013-03-20 02:12:00,
2013-03-19 22:22:00,31.0,20.0,30.06,WNW,289,0.0,8.0,64,0.00,,,0.01,,2013-03-20 02:22:00,
2013-03-19 22:32:00,30.0,20.0,30.06,WNW,298,1.0,9.0,65,0.00,,,0.01,,2013-03-20 02:32:00,
2013-03-19 22:42:00,30.0,20.0,30.06,WNW,298,1.0,9.0,65,0.00,,,0.01,,2013-03-20 02:42:00,
2013-03-19 22:53:00,29.0,19.0,30.06,North,355,0.0,8.0,66,0.00,,,0.01,,2013-03-20 02:53:00,
2013-03-19 23:02:00,29.0,20.0,30.07,West,261,1.0,8.0,68,0.00,,,0.01,,2013-03-20 03:02:00,
2013-03-19 23:12:00,29.0,20.0,30.07,NW,324,1.0,6.0,68,0.00,,,0.01,,2013-03-20 03:12:00,
2013-03-19 23:22:00,29.0,20.0,30.07,NW,324,1.0,6.0,68,0.00,,,0.01,,2013-03-20 03:22:00,
2013-03-19 23:33:00,29.0,20.0,30.06,WNW,284,2.0,9.0,68,0.00,,,0.01,,2013-03-20 03:33:00,
2013-03-19 23:42:00,29.0,20.0,30.06,WNW,284,2.0,9.0,68,0.00,,,0.01,,2013-03-20 03:42:00,
2013-03-19 23:53:00,28.0,19.0,30.06,NE,39,3.0,9.0,68,0.00,,,0.01,,2013-03-20 03:53:00,